Time;durP1;ratioP1;P1;durP2;ratioP2;P2;SDS_P1;SDS_P2;PMS_P1;PMS_P2;Temp;Humidity;BMP_temperature;BMP_pressure;BME280_temperature;BME280_humidity;BME280_pressure;Samples;Min_cycle;Max_cycle;Signal;HPM_P1;HPM_P2
2024/01/22 00:00:10;;;;;;;;;4.00;3.33;;;;;10.30;100.00;101516.22;5078033;27;45369;-85
2024/01/22 00:02:43;;;;;;;;;4.33;3.33;;;;;9.75;100.00;101394.78;5093545;27;45450;-86
2024/01/22 00:05:12;;;;;;;;;5.67;3.00;;;;;10.18;100.00;101460.22;5085838;27;45333;-86
2024/01/22 00:07:39;;;;;;;;;3.00;3.00;;;;;10.10;100.00;101414.69;5074752;27;45909;-85
2024/01/22 00:10:06;;;;;;;;;2.00;2.00;;;;;9.83;100.00;101346.03;5085476;27;45444;-86
2024/01/22 00:12:34;;;;;;;;;2.00;2.00;;;;;10.42;100.00;101456.72;5057825;28;45451;-86
2024/01/22 00:14:59;;;;;;;;;2.00;2.00;;;;;10.34;100.00;101424.44;5060393;28;45672;-86
2024/01/22 00:17:27;;;;;;;;;2.00;2.00;;;;;10.20;100.00;101398.47;5084335;27;45546;-85
2024/01/22 00:19:56;;;;;;;;;4.00;3.00;;;;;10.20;100.00;101364.13;5083860;27;45835;-85
2024/01/22 00:22:31;;;;;;;;;4.00;3.00;;;;;10.03;100.00;101353.25;5089350;27;45463;-86
2024/01/22 00:25:00;;;;;;;;;2.00;2.00;;;;;10.33;100.00;101383.03;5075917;27;45520;-85
2024/01/22 00:27:34;;;;;;;;;6.00;2.33;;;;;10.56;100.00;101384.81;5085946;27;45999;-85
2024/01/22 00:30:00;;;;;;;;;4.00;2.00;;;;;9.94;100.00;101312.19;5063776;28;45477;-84
2024/01/22 00:32:34;;;;;;;;;2.67;2.67;;;;;10.36;100.00;101373.22;5069353;27;45336;-86
2024/01/22 00:35:00;;;;;;;;;3.33;1.00;;;;;10.38;100.00;101412.78;5088150;27;45496;-85
2024/01/22 00:37:26;;;;;;;;;2.00;2.00;;;;;10.06;100.00;101333.78;5080406;27;45960;-85
2024/01/22 00:39:55;;;;;;;;;3.33;3.00;;;;;10.37;100.00;101396.06;5084046;27;45454;-84
2024/01/22 00:42:23;;;;;;;;;2.00;2.00;;;;;10.21;100.00;101346.47;5066964;27;45424;-84
2024/01/22 00:44:49;;;;;;;;;1.00;1.00;;;;;10.30;100.00;101367.28;5086568;27;45630;-85
2024/01/22 00:47:14;;;;;;;;;1.00;1.00;;;;;10.19;100.00;101346.53;5082854;27;46961;-84
2024/01/22 00:49:45;;;;;;;;;3.00;3.00;;;;;10.29;100.00;101371.69;5060708;28;45256;-86
2024/01/22 00:52:11;;;;;;;;;0.00;0.00;;;;;10.32;100.00;101365.44;5074891;27;45510;-87
2024/01/22 00:54:36;;;;;;;;;2.00;2.00;;;;;10.88;100.00;101464.69;5087007;27;45529;-86
2024/01/22 00:57:02;;;;;;;;;2.33;2.00;;;;;10.14;100.00;101342.34;5089199;27;47273;-85
2024/01/22 00:59:36;;;;;;;;;1.33;1.33;;;;;10.11;100.00;101339.78;5082324;28;45659;-85
2024/01/22 01:02:02;;;;;;;;;1.33;0.67;;;;;10.00;100.00;101329.59;5082806;27;45430;-85
2024/01/22 01:04:28;;;;;;;;;2.00;2.00;;;;;10.54;100.00;101398.09;5079212;28;45581;-86
2024/01/22 01:06:58;;;;;;;;;2.00;1.00;;;;;10.59;100.00;101419.09;5079618;28;45616;-84
2024/01/22 01:09:24;;;;;;;;;2.00;0.67;;;;;10.59;100.00;101443.75;5063243;28;45504;-85
2024/01/22 01:11:49;;;;;;;;;2.67;2.00;;;;;10.20;100.00;101356.19;5056741;28;45449;-85
2024/01/22 01:14:15;;;;;;;;;1.33;1.33;;;;;10.49;100.00;101394.75;5061244;28;45751;-85
2024/01/22 01:16:43;;;;;;;;;2.00;1.00;;;;;10.35;100.00;101394.41;5063030;28;46450;-85
2024/01/22 01:19:09;;;;;;;;;2.33;2.00;;;;;10.67;100.00;101414.34;5078602;28;45392;-87
2024/01/22 01:21:38;;;;;;;;;1.00;1.00;;;;;10.19;100.00;101337.72;5061968;28;45502;-89
2024/01/22 01:24:04;;;;;;;;;1.00;1.00;;;;;10.27;100.00;101339.19;5057223;28;46368;-86
2024/01/22 01:26:29;;;;;;;;;1.00;1.00;;;;;9.98;100.00;101257.41;5074957;28;48206;-86
2024/01/22 01:28:54;;;;;;;;;1.00;1.00;;;;;10.54;100.00;101345.19;5080320;28;45367;-85
2024/01/22 01:31:20;;;;;;;;;1.00;1.00;;;;;10.36;100.00;101293.88;5066322;28;45519;-85
2024/01/22 01:33:45;;;;;;;;;2.00;1.00;;;;;10.88;100.00;101374.72;5064975;28;45446;-87
2024/01/22 01:36:11;;;;;;;;;5.00;1.67;;;;;10.16;100.00;101240.91;5065701;28;47884;-86
2024/01/22 01:38:36;;;;;;;;;1.00;1.00;;;;;10.44;100.00;101256.53;5067821;28;45520;-87
2024/01/22 01:41:09;;;;;;;;;2.00;1.67;;;;;10.22;100.00;101229.22;5083716;28;45296;-85
2024/01/22 01:43:34;;;;;;;;;3.00;1.00;;;;;10.54;100.00;101241.19;5063869;28;45591;-85
2024/01/22 01:46:00;;;;;;;;;3.00;2.00;;;;;11.30;100.00;101416.28;5082342;28;45660;-85
2024/01/22 01:48:26;;;;;;;;;4.00;2.67;;;;;11.20;100.00;101420.22;5077117;28;45456;-84
2024/01/22 01:50:51;;;;;;;;;2.00;2.00;;;;;11.33;100.00;101421.44;5077668;28;45580;-85
2024/01/22 01:53:17;;;;;;;;;2.33;2.33;;;;;10.45;100.00;101239.78;5081340;28;45341;-84
2024/01/22 01:55:47;;;;;;;;;1.00;1.00;;;;;10.27;100.00;101238.72;5081567;28;46794;-85
2024/01/22 01:58:21;;;;;;;;;2.33;2.00;;;;;10.52;100.00;101283.56;5061296;28;45622;-85
2024/01/22 02:00:54;;;;;;;;;1.67;1.00;;;;;10.82;100.00;101319.41;5078088;28;45461;-85
2024/01/22 02:03:20;;;;;;;;;1.33;1.33;;;;;11.46;100.00;101412.94;5086260;27;45764;-85
2024/01/22 02:05:46;;;;;;;;;2.67;2.00;;;;;10.67;100.00;101279.44;5087772;27;46429;-85
2024/01/22 02:08:12;;;;;;;;;2.33;1.33;;;;;11.11;100.00;101342.03;5071322;27;45495;-86
2024/01/22 02:10:38;;;;;;;;;1.00;1.00;;;;;10.69;100.00;101285.56;5079877;27;45348;-85
2024/01/22 02:13:06;;;;;;;;;1.33;1.33;;;;;11.55;100.00;101417.00;5078253;27;46117;-85
2024/01/22 02:15:32;;;;;;;;;1.00;1.00;;;;;11.17;100.00;101349.72;5083309;27;45450;-84
2024/01/22 02:18:05;;;;;;;;;2.00;2.00;;;;;11.19;100.00;101317.91;5062392;28;45435;-83
2024/01/22 02:20:30;;;;;;;;;1.00;1.00;;;;;11.15;100.00;101316.31;5075122;28;45285;-85
2024/01/22 02:23:03;;;;;;;;;1.67;1.67;;;;;10.60;100.00;101228.56;5081313;27;45451;-84
2024/01/22 02:25:28;;;;;;;;;1.33;1.33;;;;;11.70;100.00;101400.50;5073487;27;47028;-83
2024/01/22 02:28:01;;;;;;;;;1.33;1.33;;;;;11.38;100.00;101338.25;5082646;27;45552;-83
2024/01/22 02:30:27;;;;;;;;;3.00;1.00;;;;;10.93;100.00;101268.66;5064317;27;45392;-85
2024/01/22 02:32:52;;;;;;;;;1.33;1.33;;;;;11.30;100.00;101302.41;5080571;27;45484;-84
2024/01/22 02:35:20;;;;;;;;;2.67;1.00;;;;;11.48;100.00;101301.66;5093232;27;48010;-88
2024/01/22 02:37:49;;;;;;;;;3.00;2.00;;;;;11.60;100.00;101354.09;5086029;27;45456;-83
2024/01/22 02:40:14;;;;;;;;;1.00;1.00;;;;;11.06;100.00;101232.81;5088598;27;45280;-83
2024/01/22 02:42:40;;;;;;;;;2.00;0.00;;;;;11.09;100.00;101221.28;5078231;27;45443;-83
2024/01/22 02:45:07;;;;;;;;;2.00;1.00;;;;;11.14;100.00;101198.97;5069110;27;45315;-82
2024/01/22 02:47:35;;;;;;;;;1.00;1.00;;;;;11.18;100.00;101256.16;5074394;28;45466;-82
2024/01/22 02:50:01;;;;;;;;;2.00;2.00;;;;;11.51;100.00;101285.63;5068636;27;45557;-85
2024/01/22 02:52:27;;;;;;;;;1.67;1.00;;;;;11.72;100.00;101323.59;5077796;27;45446;-85
2024/01/22 02:54:53;;;;;;;;;1.00;1.00;;;;;11.37;100.00;101261.50;5080616;27;45706;-83
2024/01/22 02:57:18;;;;;;;;;1.00;1.00;;;;;11.83;100.00;101335.47;5065613;27;45558;-84
2024/01/22 02:59:44;;;;;;;;;1.67;1.00;;;;;11.01;100.00;101197.75;5089314;27;45350;-84
2024/01/22 03:02:10;;;;;;;;;3.00;1.00;;;;;11.65;100.00;101324.78;5084721;27;45296;-83
2024/01/22 03:04:38;;;;;;;;;2.00;2.00;;;;;10.98;100.00;101212.00;5079036;28;46368;-85
2024/01/22 03:07:09;;;;;;;;;1.67;1.67;;;;;10.67;100.00;101140.09;5060832;28;45594;-85
2024/01/22 03:09:35;;;;;;;;;1.00;1.00;;;;;11.75;100.00;101358.75;5060630;28;45342;-85
2024/01/22 03:12:04;;;;;;;;;2.00;1.00;;;;;11.07;100.00;101186.03;5072352;28;45402;-85
2024/01/22 03:14:32;;;;;;;;;1.00;1.00;;;;;10.92;100.00;101172.56;5057110;28;47382;-83
2024/01/22 03:16:58;;;;;;;;;2.00;1.00;;;;;10.71;100.00;101178.75;5075975;27;45577;-84
2024/01/22 03:19:24;;;;;;;;;1.00;1.00;;;;;11.73;100.00;101338.56;5072274;28;45217;-87
2024/01/22 03:21:52;;;;;;;;;1.00;1.00;;;;;11.24;100.00;101236.50;5075176;28;45577;-86
2024/01/22 03:24:18;;;;;;;;;1.00;1.00;;;;;10.88;100.00;101168.31;5081009;28;48065;-86
2024/01/22 03:26:43;;;;;;;;;0.00;0.00;;;;;11.19;100.00;101233.19;5081864;28;45392;-85
2024/01/22 03:29:09;;;;;;;;;1.33;1.00;;;;;11.61;100.00;101267.53;5065097;28;45470;-85
2024/01/22 03:31:37;;;;;;;;;1.00;1.00;;;;;11.67;100.00;101314.97;5081838;28;45567;-85
2024/01/22 03:34:03;;;;;;;;;1.00;1.00;;;;;10.66;100.00;101148.13;5065504;28;47648;-85
2024/01/22 03:36:29;;;;;;;;;1.00;1.00;;;;;10.60;100.00;101114.00;5060100;28;45787;-86
2024/01/22 03:38:54;;;;;;;;;1.67;1.67;;;;;11.08;100.00;101185.13;5079204;28;45500;-84
2024/01/22 03:41:20;;;;;;;;;3.67;2.00;;;;;10.72;100.00;101132.84;5072891;28;45595;-86
2024/01/22 03:44:04;;;;;;;;;0.67;0.67;;;;;10.74;100.00;101127.47;5053801;28;45412;-86
2024/01/22 03:46:39;;;;;;;;;1.00;1.00;;;;;11.21;100.00;101197.78;5080091;28;45319;-87
2024/01/22 03:49:07;;;;;;;;;1.00;1.00;;;;;11.26;100.00;101206.34;5062229;28;45510;-87
2024/01/22 03:51:35;;;;;;;;;2.00;0.33;;;;;11.14;100.00;101203.38;5077408;28;46556;-85
2024/01/22 03:54:09;;;;;;;;;1.67;1.67;;;;;11.61;100.00;101284.31;5071916;28;45723;-89
2024/01/22 03:57:06;;;;;;;;;;;;;;;;;;;;;
2024/01/22 03:59:37;;;;;;;;;2.33;1.00;;;;;10.46;100.00;101088.13;5077798;28;70180;-89
2024/01/22 04:02:13;;;;;;;;;1.00;1.00;;;;;11.29;100.00;101213.31;5057003;27;45545;-88
2024/01/22 04:04:46;;;;;;;;;2.33;0.33;;;;;11.25;100.00;101196.72;5077282;28;47041;-88
2024/01/22 04:07:16;;;;;;;;;2.00;1.00;;;;;11.22;100.00;101178.28;5075265;28;45626;-88
2024/01/22 04:09:49;;;;;;;;;1.33;1.33;;;;;10.76;100.00;101118.59;5061627;28;45630;-87
2024/01/22 04:12:46;;;;;;;;;0.00;0.00;;;;;10.64;100.00;101097.91;5057922;28;45353;-89
2024/01/22 04:15:14;;;;;;;;;2.00;2.00;;;;;11.69;100.00;101279.50;5069870;28;46198;-88
2024/01/22 04:17:50;;;;;;;;;;;;;;;;;;;;;
2024/01/22 04:20:21;;;;;;;;;1.00;1.00;;;;;10.95;100.00;101139.81;5078372;28;67903;-88
2024/01/22 04:22:48;;;;;;;;;0.00;0.00;;;;;10.88;100.00;101118.03;5081751;28;45463;-89
2024/01/22 04:25:37;;;;;;;;;0.00;0.00;;;;;10.76;100.00;101089.47;5063593;28;46979;-88
2024/01/22 04:28:17;;;;;;;;;;;;;;;;;;;;;
2024/01/22 04:31:07;;;;;;;;;1.00;1.00;;;;;10.82;100.00;101099.78;5085727;28;66937;-91
2024/01/22 04:33:43;;;;;;;;;0.00;0.00;;;;;11.41;100.00;101202.19;5070786;28;45584;-89
2024/01/22 04:36:12;;;;;;;;;1.00;1.00;;;;;11.41;100.00;101186.31;5084845;28;46598;-86
2024/01/22 04:38:44;;;;;;;;;1.00;1.00;;;;;11.22;100.00;101143.88;5080597;28;45495;-91
2024/01/22 04:41:15;;;;;;;;;3.00;1.00;;;;;11.81;100.00;101233.09;5082181;27;45557;-88
2024/01/22 04:43:53;;;;;;;;;0.00;0.00;;;;;10.86;100.00;101066.13;5078767;28;45337;-89
2024/01/22 04:46:38;;;;;;;;;1.00;1.00;;;;;11.29;100.00;101139.16;5070783;28;47183;-88
2024/01/22 04:49:19;;;;;;;;;;;;;;;;;;;;;
2024/01/22 04:52:07;;;;;;;;;0.33;0.33;;;;;10.89;100.00;101058.91;5073161;28;67852;-88
2024/01/22 04:54:51;;;;;;;;;0.00;0.00;;;;;10.96;100.00;101070.91;5068878;28;45472;-87
2024/01/22 04:57:19;;;;;;;;;1.00;0.00;;;;;10.98;100.00;101098.19;5062119;28;48274;-88
2024/01/22 04:59:48;;;;;;;;;0.00;0.00;;;;;11.37;100.00;101126.44;5079727;28;45566;-87
2024/01/22 05:02:22;;;;;;;;;0.00;0.00;;;;;11.33;100.00;101133.69;5079600;27;45314;-87
2024/01/22 05:04:56;;;;;;;;;0.00;0.00;;;;;11.09;100.00;101087.13;5079897;28;45312;-85
2024/01/22 05:07:38;;;;;;;;;;;;;;;;;;;;;
2024/01/22 05:10:13;;;;;;;;;2.00;1.00;;;;;11.49;100.00;101126.75;5074294;28;71924;-87
2024/01/22 05:15:50;;;;;;;;;0.00;0.00;;;;;10.97;100.00;101030.31;5060308;28;45805;-87
2024/01/22 05:18:17;;;;;;;;;1.00;1.00;;;;;11.84;100.00;101182.59;5071349;28;46316;-87
2024/01/22 05:20:42;;;;;;;;;1.33;0.00;;;;;11.90;100.00;101198.22;5077659;28;45539;-85
2024/01/22 05:23:15;;;;;;;;;1.67;1.00;;;;;11.15;100.00;101038.34;5058936;28;45467;-86
2024/01/22 05:25:44;;;;;;;;;0.00;0.00;;;;;11.56;100.00;101142.34;5059510;28;45578;-86
2024/01/22 05:28:09;;;;;;;;;0.67;0.00;;;;;12.14;100.00;101186.44;5064174;28;48372;-86
2024/01/22 05:30:35;;;;;;;;;0.00;0.00;;;;;11.49;100.00;101089.66;5065147;28;45772;-86
2024/01/22 05:33:01;;;;;;;;;1.00;1.00;;;;;12.07;100.00;101192.13;5064450;28;45495;-86
2024/01/22 05:35:26;;;;;;;;;0.00;0.00;;;;;11.38;100.00;101099.91;5081369;28;45499;-86
2024/01/22 05:37:51;;;;;;;;;2.00;0.00;;;;;11.78;100.00;101128.06;5068460;28;47963;-86
2024/01/22 05:40:17;;;;;;;;;0.00;0.00;;;;;11.99;100.00;101185.41;5076700;28;45551;-85
2024/01/22 05:42:43;;;;;;;;;1.67;0.67;;;;;11.42;100.00;101061.75;5081876;28;45362;-85
2024/01/22 05:45:08;;;;;;;;;0.33;0.00;;;;;11.83;100.00;101149.06;5079791;28;45321;-86
2024/01/22 05:47:34;;;;;;;;;1.00;0.00;;;;;12.23;100.00;101214.34;5080783;28;46995;-85
2024/01/22 05:50:02;;;;;;;;;1.00;0.00;;;;;11.58;100.00;101075.16;5073444;28;45296;-84
2024/01/22 05:55:29;;;;;;;;;;;;;;;;;;;;;
2024/01/22 05:57:57;;;;;;;;;1.33;1.00;;;;;11.58;100.00;101090.19;5072224;28;73810;-88
2024/01/22 06:00:23;;;;;;;;;0.00;0.00;;;;;12.19;100.00;101199.50;5079594;28;45499;-79
2024/01/22 06:02:53;;;;;;;;;1.00;1.00;;;;;11.66;100.00;101117.16;5073383;27;45523;-80
2024/01/22 06:05:22;;;;;;;;;0.00;0.00;;;;;11.68;100.00;101116.16;5076169;28;45805;-80
2024/01/22 06:07:52;;;;;;;;;1.00;1.00;;;;;12.00;100.00;101139.41;5087449;27;47125;-80
2024/01/22 06:11:10;;;;;;;;;;;;;;;;;;;;;
2024/01/22 06:13:42;;;;;;;;;0.00;0.00;;;;;11.97;100.00;101133.41;5068156;28;70030;-81
2024/01/22 06:16:14;;;;;;;;;0.00;0.00;;;;;11.36;100.00;101040.00;5077186;28;45486;-83
2024/01/22 06:18:41;;;;;;;;;0.00;0.00;;;;;11.54;100.00;101083.31;5072379;28;46412;-81
2024/01/22 06:21:11;;;;;;;;;0.67;0.00;;;;;11.15;100.00;100996.00;5078511;27;45542;-81
2024/01/22 06:23:38;;;;;;;;;1.00;1.00;;;;;11.99;100.00;101150.06;5080485;27;45430;-82
2024/01/22 06:26:06;;;;;;;;;0.67;0.67;;;;;11.33;100.00;101072.78;5072582;28;45488;-82
2024/01/22 06:28:38;;;;;;;;;1.00;1.00;;;;;11.64;100.00;101096.06;5072740;28;45475;-82
2024/01/22 06:31:18;;;;;;;;;;;;;;;;;;;;;
2024/01/22 06:33:44;;;;;;;;;0.00;0.00;;;;;11.52;100.00;101070.97;5085244;27;67040;-82
2024/01/22 06:36:12;;;;;;;;;0.00;0.00;;;;;11.42;100.00;101060.88;5081582;28;45430;-82
2024/01/22 06:38:38;;;;;;;;;1.33;0.33;;;;;10.96;100.00;101002.09;5080285;28;47176;-83
2024/01/22 06:41:09;;;;;;;;;0.67;0.67;;;;;11.36;100.00;101066.47;5057253;28;45515;-83
2024/01/22 06:43:37;;;;;;;;;0.00;0.00;;;;;11.84;100.00;101124.31;5077044;28;45309;-84
2024/01/22 06:46:05;;;;;;;;;1.00;0.00;;;;;11.21;100.00;101030.97;5075515;27;45888;-81
2024/01/22 06:49:05;;;;;;;;;2.00;1.00;;;;;11.48;100.00;101087.94;5061871;28;47280;-81
2024/01/22 06:51:34;;;;;;;;;0.33;0.33;;;;;11.19;100.00;101053.16;5077955;27;45336;-81
2024/01/22 06:54:03;;;;;;;;;0.00;0.00;;;;;11.16;100.00;101017.06;5062581;28;45507;-81
2024/01/22 06:56:31;;;;;;;;;1.00;1.00;;;;;11.88;100.00;101145.28;5060182;28;45324;-81
2024/01/22 06:58:59;;;;;;;;;0.00;0.00;;;;;10.81;100.00;100979.00;5067870;28;48044;-82
2024/01/22 07:01:30;;;;;;;;;2.00;0.00;;;;;11.92;100.00;101180.44;5057990;28;45479;-82
2024/01/22 07:03:58;;;;;;;;;0.00;0.00;;;;;11.03;100.00;101034.44;5089568;27;45416;-81
2024/01/22 07:06:29;;;;;;;;;0.33;0.33;;;;;11.06;100.00;101022.88;5081473;27;45580;-82
2024/01/22 07:08:55;;;;;;;;;1.00;1.00;;;;;11.03;100.00;101038.91;5095129;27;47204;-82
2024/01/22 07:11:20;;;;;;;;;1.33;0.00;;;;;11.40;100.00;101102.47;5075238;27;45575;-81
2024/01/22 07:13:46;;;;;;;;;0.00;0.00;;;;;11.46;100.00;101115.44;5094058;27;45312;-81
2024/01/22 07:16:11;;;;;;;;;2.00;1.00;;;;;11.22;100.00;101071.56;5082969;27;45460;-81
2024/01/22 07:18:37;;;;;;;;;1.00;1.00;;;;;11.40;100.00;101113.06;5089924;27;45420;-82
2024/01/22 07:21:03;;;;;;;;;3.00;1.00;;;;;11.63;100.00;101160.56;5080672;27;45323;-81
2024/01/22 07:23:30;;;;;;;;;1.00;1.00;;;;;11.67;100.00;101164.78;5062743;28;45617;-81
2024/01/22 07:25:55;;;;;;;;;0.00;0.00;;;;;10.92;100.00;101040.25;5086090;27;45552;-81
2024/01/22 07:28:21;;;;;;;;;0.00;0.00;;;;;11.01;100.00;101054.84;5080646;27;45647;-81
2024/01/22 07:30:46;;;;;;;;;2.33;0.00;;;;;11.24;100.00;101104.09;5066453;28;45364;-81
2024/01/22 07:33:12;;;;;;;;;1.67;1.00;;;;;11.16;100.00;101066.53;5090572;27;45513;-81
2024/01/22 07:35:37;;;;;;;;;0.00;0.00;;;;;11.23;100.00;101092.66;5078956;28;45384;-83
2024/01/22 07:38:05;;;;;;;;;1.33;1.00;;;;;11.21;100.00;101081.28;5078966;27;47987;-82
2024/01/22 07:40:30;;;;;;;;;0.00;0.00;;;;;10.87;100.00;101036.94;5061830;28;45426;-82
2024/01/22 07:42:56;;;;;;;;;1.67;1.00;;;;;11.62;100.00;101155.31;5077418;28;45681;-85
2024/01/22 07:45:21;;;;;;;;;2.00;1.00;;;;;11.41;100.00;101130.69;5071565;28;45514;-81
2024/01/22 07:47:47;;;;;;;;;1.33;0.67;;;;;11.38;100.00;101099.06;5078526;28;45910;-81
2024/01/22 07:50:14;;;;;;;;;0.00;0.00;;;;;11.42;100.00;101113.84;5079168;28;45400;-79
2024/01/22 07:52:40;;;;;;;;;3.67;1.00;;;;;11.57;100.00;101136.13;5078684;28;45447;-79
2024/01/22 07:55:07;;;;;;;;;1.00;1.00;;;;;11.38;100.00;101115.81;5079199;28;45504;-79
2024/01/22 07:57:33;;;;;;;;;0.00;0.00;;;;;11.59;100.00;101137.78;5060980;28;48192;-79
2024/01/22 07:59:59;;;;;;;;;1.67;0.00;;;;;11.72;100.00;101161.94;5077954;28;45442;-79
2024/01/22 08:02:24;;;;;;;;;0.00;0.00;;;;;11.68;100.00;101155.06;5084895;27;45411;-79
2024/01/22 08:04:50;;;;;;;;;2.00;0.67;;;;;12.00;100.00;101197.72;5090122;27;45319;-79
2024/01/22 08:07:17;;;;;;;;;1.67;1.00;;;;;11.49;100.00;101108.22;5082367;27;45387;-79
2024/01/22 08:09:42;;;;;;;;;0.00;0.00;;;;;11.66;100.00;101139.22;5086314;27;45280;-79
2024/01/22 08:12:07;;;;;;;;;1.00;1.00;;;;;11.66;100.00;101146.31;5083058;27;45363;-79
2024/01/22 08:14:34;;;;;;;;;0.00;0.00;;;;;11.68;100.00;101157.72;5085024;27;45735;-79
2024/01/22 08:17:01;;;;;;;;;2.00;0.67;;;;;11.79;100.00;101166.03;5089054;27;45471;-79
2024/01/22 08:19:26;;;;;;;;;0.00;0.00;;;;;11.56;100.00;101177.66;5098055;27;45395;-83
2024/01/22 08:21:52;;;;;;;;;0.00;0.00;;;;;11.34;100.00;101130.09;5071835;28;45393;-85
2024/01/22 08:24:19;;;;;;;;;4.67;1.00;;;;;11.24;100.00;101130.56;5084919;27;45426;-86
2024/01/22 08:26:44;;;;;;;;;1.00;1.00;;;;;11.70;100.00;101241.53;5074114;27;45588;-86
2024/01/22 08:29:10;;;;;;;;;1.67;0.67;;;;;12.22;100.00;101340.78;5076133;27;45596;-86
2024/01/22 08:31:35;;;;;;;;;3.00;1.67;;;;;11.81;100.00;101246.34;5091431;27;45272;-85
2024/01/22 08:34:02;;;;;;;;;1.00;1.00;;;;;12.24;100.00;101320.34;5106663;27;44785;-83
2024/01/22 08:36:28;;;;;;;;;2.00;1.00;;;;;11.74;100.00;101266.97;5090738;27;46163;-83
2024/01/22 08:38:54;;;;;;;;;0.33;0.33;;;;;12.12;100.00;101298.81;5102237;27;45352;-82
2024/01/22 08:41:26;;;;;;;;;0.67;0.67;;;;;11.69;100.00;101260.97;5102938;27;45449;-81
2024/01/22 08:43:52;;;;;;;;;3.00;1.00;;;;;11.53;100.00;101199.00;5090595;27;45238;-81
2024/01/22 08:46:17;;;;;;;;;1.00;1.00;;;;;11.81;100.00;101264.91;5087452;27;45322;-82
2024/01/22 08:48:43;;;;;;;;;0.67;0.67;;;;;12.11;100.00;101308.56;5073285;28;45839;-80
2024/01/22 08:51:08;;;;;;;;;1.00;0.00;;;;;11.99;100.00;101310.00;5089595;27;45352;-80
2024/01/22 08:53:33;;;;;;;;;0.67;0.00;;;;;11.83;100.00;101282.44;5090725;27;45592;-81
2024/01/22 08:56:00;;;;;;;;;3.00;2.00;;;;;11.98;100.00;101297.66;5085350;27;46427;-82
2024/01/22 08:58:26;;;;;;;;;0.67;0.67;;;;;11.61;100.00;101223.38;5088939;27;45362;-82
2024/01/22 09:00:51;;;;;;;;;1.00;1.00;;;;;12.15;100.00;101331.38;5094254;27;45409;-82
2024/01/22 09:03:16;;;;;;;;;2.67;0.00;;;;;11.67;100.00;101248.72;5083104;27;45362;-81
2024/01/22 09:05:42;;;;;;;;;2.00;1.00;;;;;12.06;100.00;101315.00;5085086;28;46103;-83
2024/01/22 09:08:07;;;;;;;;;0.00;0.00;;;;;11.85;100.00;101295.63;5057316;28;45510;-83
2024/01/22 09:10:33;;;;;;;;;2.00;2.00;;;;;11.62;100.00;101278.06;5068641;28;45339;-83
2024/01/22 09:12:58;;;;;;;;;2.00;1.00;;;;;11.84;100.00;101260.31;5074727;28;45428;-85
2024/01/22 09:15:24;;;;;;;;;2.00;1.00;;;;;11.44;100.00;101213.53;5057470;28;47074;-84
2024/01/22 09:17:49;;;;;;;;;2.67;1.00;;;;;11.95;100.00;101289.84;5078805;28;45494;-83
2024/01/22 09:20:15;;;;;;;;;2.00;0.33;;;;;11.94;100.00;101309.31;5063562;28;45300;-82
2024/01/22 09:22:41;;;;;;;;;1.67;1.00;;;;;11.93;100.00;101290.84;5070289;28;45309;-82
2024/01/22 09:25:08;;;;;;;;;2.00;0.33;;;;;12.18;100.00;101325.91;5063351;28;45380;-82
2024/01/22 09:27:33;;;;;;;;;2.33;1.00;;;;;11.94;100.00;101258.13;5076700;27;45502;-81
2024/01/22 09:29:59;;;;;;;;;2.00;1.00;;;;;12.02;100.00;101285.13;5081318;28;45454;-81
2024/01/22 09:32:25;;;;;;;;;3.00;1.67;;;;;11.91;100.00;101247.66;5085583;28;45545;-80
2024/01/22 09:34:51;;;;;;;;;1.00;1.00;;;;;11.96;100.00;101241.22;5087851;27;45450;-80
2024/01/22 09:37:17;;;;;;;;;1.00;1.00;;;;;12.69;100.00;101362.47;5078788;28;45444;-80
2024/01/22 09:39:45;;;;;;;;;2.00;0.33;;;;;12.46;100.00;101323.75;5081322;28;45515;-80
2024/01/22 09:42:14;;;;;;;;;2.00;1.00;;;;;12.57;100.00;101351.53;5064445;28;45516;-79
2024/01/22 09:44:45;;;;;;;;;3.00;1.33;;;;;12.46;100.00;101317.56;5081152;28;46224;-80
2024/01/22 09:47:11;;;;;;;;;3.67;1.67;;;;;12.52;100.00;101338.50;5075063;28;45435;-80
2024/01/22 09:49:37;;;;;;;;;1.00;1.00;;;;;12.46;100.00;101304.31;5077829;28;45344;-79
2024/01/22 09:52:03;;;;;;;;;3.33;0.00;;;;;12.48;100.00;101337.78;5076741;28;45317;-79
2024/01/22 09:54:30;;;;;;;;;0.33;0.33;;;;;12.78;100.00;101379.75;5080844;28;46440;-79
2024/01/22 09:56:57;;;;;;;;;2.00;0.67;;;;;13.07;100.00;101435.84;5070946;28;45459;-79
2024/01/22 09:59:25;;;;;;;;;3.00;2.00;;;;;12.45;100.00;101332.63;5078345;28;45293;-79
2024/01/22 10:01:52;;;;;;;;;6.67;3.00;;;;;12.65;100.00;101368.84;5070660;28;45541;-79
2024/01/22 10:04:18;;;;;;;;;5.67;1.00;;;;;12.70;100.00;101344.72;5061779;28;46176;-79
2024/01/22 10:06:46;;;;;;;;;4.33;2.00;;;;;12.99;100.00;101398.16;5080631;28;45404;-79
2024/01/22 10:09:15;;;;;;;;;3.00;2.00;;;;;13.00;100.00;101412.31;5077907;28;45421;-79
2024/01/22 10:11:45;;;;;;;;;5.00;1.00;;;;;13.11;100.00;101449.00;5079742;28;45570;-79
2024/01/22 10:14:11;;;;;;;;;3.33;2.00;;;;;12.77;100.00;101389.50;5078093;28;46266;-80
2024/01/22 10:16:37;;;;;;;;;5.67;2.00;;;;;12.33;100.00;101337.63;5080356;28;45419;-81
2024/01/22 10:19:08;;;;;;;;;5.00;2.00;;;;;12.01;100.00;101313.41;5077369;28;45522;-84
2024/01/22 10:21:35;;;;;;;;;1.00;1.00;;;;;11.83;100.00;101306.31;5077512;28;45287;-83
2024/01/22 10:24:02;;;;;;;;;2.33;0.00;;;;;11.85;100.00;101332.72;5078752;28;47450;-83
2024/01/22 10:26:30;;;;;;;;;1.00;0.00;;;;;12.17;100.00;101427.59;5078890;28;45474;-83
2024/01/22 10:29:13;;;;;;;;;2.00;1.00;;;;;11.78;100.00;101390.44;5061391;28;45328;-82
2024/01/22 10:31:53;;;;;;;;;3.00;1.00;;;;;12.09;100.00;101468.66;5087100;28;45302;-83
2024/01/22 10:34:21;;;;;;;;;4.33;1.67;;;;;12.08;100.00;101470.44;5077544;28;45570;-84
2024/01/22 10:37:12;;;;;;;;;2.00;2.00;;;;;11.30;100.00;101339.50;5080347;28;45724;-84
2024/01/22 10:39:42;;;;;;;;;3.00;1.33;;;;;11.27;100.00;101358.16;5077475;28;45378;-82
2024/01/22 10:42:17;;;;;;;;;3.00;1.00;;;;;12.23;100.00;101477.75;5056808;28;45772;-82
2024/01/22 10:44:47;;;;;;;;;1.33;1.00;;;;;11.59;100.00;101392.09;5085195;28;45498;-81
2024/01/22 10:47:17;;;;;;;;;5.00;2.00;;;;;12.26;100.00;101492.66;5066900;28;45227;-81
2024/01/22 10:49:44;;;;;;;;;2.33;2.33;;;;;12.13;100.00;101460.50;5083538;28;45341;-80
2024/01/22 10:52:10;;;;;;;;;2.33;1.33;;;;;11.56;100.00;101392.22;5080056;28;45400;-80
2024/01/22 10:54:36;;;;;;;;;4.67;2.67;;;;;11.67;100.00;101411.22;5078221;28;45434;-80
2024/01/22 10:57:23;;;;;;;;;5.33;2.00;;;;;11.58;100.00;101393.06;5076782;28;45376;-82
2024/01/22 10:59:49;;;;;;;;;6.00;2.00;;;;;11.40;100.00;101362.00;5056565;28;45585;-81
2024/01/22 11:02:22;;;;;;;;;5.00;2.00;;;;;11.96;100.00;101463.88;5084519;27;45388;-83
2024/01/22 11:04:52;;;;;;;;;2.00;1.00;;;;;11.25;100.00;101339.69;5083173;28;46447;-82
2024/01/22 11:07:27;;;;;;;;;4.00;2.67;;;;;11.51;100.00;101346.56;5087861;28;45391;-82
2024/01/22 11:09:55;;;;;;;;;2.67;2.00;;;;;11.46;100.00;101362.63;5068915;28;45356;-81
2024/01/22 11:12:21;;;;;;;;;4.00;2.67;;;;;11.37;100.00;101348.91;5071399;28;45328;-80
2024/01/22 11:14:51;;;;;;;;;5.33;3.00;;;;;11.86;100.00;101412.19;5062423;28;46383;-80
2024/01/22 11:17:18;;;;;;;;;1.00;1.00;;;;;11.50;100.00;101358.06;5079535;28;45613;-80
2024/01/22 11:19:44;;;;;;;;;4.00;2.00;;;;;12.22;100.00;101505.19;5082546;28;45348;-80
2024/01/22 11:22:23;;;;;;;;;3.67;2.00;;;;;12.10;100.00;101459.78;5080987;28;45268;-80
2024/01/22 11:25:12;;;;;;;;;5.00;2.00;;;;;11.80;100.00;101407.16;5075533;28;46337;-80
2024/01/22 11:27:43;;;;;;;;;7.67;3.00;;;;;11.40;100.00;101332.88;5065836;28;45416;-80
2024/01/22 11:30:23;;;;;;;;;4.00;2.00;;;;;12.37;100.00;101490.38;5074901;28;45294;-79
2024/01/22 11:32:49;;;;;;;;;4.00;2.00;;;;;11.80;100.00;101401.84;5059928;28;45545;-79
2024/01/22 11:35:37;;;;;;;;;5.67;1.33;;;;;12.48;100.00;101491.66;5060678;28;46479;-79
2024/01/22 11:38:04;;;;;;;;;5.00;3.00;;;;;12.22;100.00;101446.84;5061857;28;45893;-79
2024/01/22 11:40:55;;;;;;;;;4.67;4.00;;;;;12.48;100.00;101504.94;5080204;28;45516;-79